Hove, United Kingdom
Current Conditions -  °F | °C
As of 3:20 PM on Friday 24 Oct 2014 (Local Time) from EGKA Reporting Station
Light Rain Light Rain  
Wind Chill: 61°   Ceiling: 600
Heat Index: 61°   Visibility: 4mi
Dew Point: 59°   Wind: 9mph
Humidity: 94%   Direction: 220°SW
Pressure: 29.91"   Gusts: NA
Location:  50.83°N, 0.17°W
Report Text: EGKA 241420Z 22008KT 7000 -RA SCT003 BKN006 16/15 Q1013
Loading
Personal Weather Stations






























Interactive Weather Map
Tropical Storm Tracking
New forecast layout! Learn more

10-Day Weather Forecast

Advertisements
Track Severe Weather on mobile